createdAt,value
2022-11-12T00:02:34.293Z,14.05
2022-11-12T00:05:39.696Z,13.18
2022-11-12T00:08:50.582Z,12.07
2022-11-12T00:11:58.368Z,14.43
2022-11-12T00:15:03.511Z,10.57
2022-11-12T00:18:09.138Z,12.25
2022-11-12T00:21:21.204Z,13.35
2022-11-12T00:24:29.430Z,12.38
2022-11-12T00:27:34.953Z,11.40
2022-11-12T00:30:44.459Z,10.82
2022-11-12T00:33:49.290Z,10.88
2022-11-12T00:36:54.831Z,13.38
2022-11-12T00:40:03.193Z,11.85
2022-11-12T00:43:10.917Z,11.60
2022-11-12T00:46:20.771Z,12.73
2022-11-12T00:49:26.336Z,9.85
2022-11-12T00:52:33.393Z,11.02
2022-11-12T00:55:42.141Z,14.10
2022-11-12T00:58:47.230Z,9.23
2022-11-12T01:01:55.326Z,9.40
2022-11-12T01:05:00.690Z,10.32
2022-11-12T01:08:11.779Z,12.50
2022-11-12T01:11:21.537Z,10.80
2022-11-12T01:14:28.398Z,11.70
2022-11-12T01:17:34.915Z,10.60
2022-11-12T01:20:41.046Z,12.45
2022-11-12T01:23:48.480Z,11.80
2022-11-12T01:26:57.215Z,10.45
2022-11-12T01:30:04.491Z,7.65
2022-11-12T01:33:11.199Z,12.00
2022-11-12T01:36:16.737Z,10.43
2022-11-12T01:39:22.476Z,7.68
2022-11-12T01:42:32.362Z,11.02
2022-11-12T01:45:38.342Z,10.15
2022-11-12T01:48:51.570Z,12.07
2022-11-12T01:52:00.478Z,11.18
2022-11-12T01:55:08.761Z,11.82
2022-11-12T01:58:19.088Z,12.32
2022-11-12T02:01:24.142Z,9.63
2022-11-12T02:04:30.144Z,8.38
2022-11-12T02:07:39.041Z,8.25
2022-11-12T02:10:44.637Z,11.55
2022-11-12T02:14:05.261Z,12.10
2022-11-12T02:17:11.228Z,7.47
2022-11-12T02:20:19.217Z,8.95
2022-11-12T02:23:38.540Z,6.90
2022-11-12T02:26:45.731Z,10.82
2022-11-12T02:29:51.453Z,7.07
2022-11-12T02:32:59.050Z,7.95
2022-11-12T02:36:07.058Z,10.48
2022-11-12T02:39:14.968Z,7.60
2022-11-12T02:42:22.993Z,9.25
2022-11-12T02:45:30.846Z,7.03
2022-11-12T02:48:42.224Z,11.73
2022-11-12T02:51:48.257Z,7.10
2022-11-12T02:55:01.876Z,7.05
2022-11-12T02:58:11.828Z,10.38
2022-11-12T03:01:17.684Z,7.90
2022-11-12T03:04:40.980Z,12.93
2022-11-12T03:07:48.636Z,6.50
2022-11-12T03:10:57.793Z,10.55
2022-11-12T03:14:04.101Z,10.40
2022-11-12T03:17:09.376Z,8.15
2022-11-12T03:20:19.499Z,8.63
2022-11-12T03:23:42.112Z,9.70
2022-11-12T03:26:50.141Z,11.07
2022-11-12T03:29:55.949Z,9.20
2022-11-12T03:33:01.580Z,10.38
2022-11-12T03:36:10.449Z,7.68
2022-11-12T03:39:18.471Z,8.07
2022-11-12T03:42:26.327Z,6.82
2022-11-12T03:45:31.690Z,9.00
2022-11-12T03:48:36.930Z,6.97
2022-11-12T03:51:43.230Z,7.55
2022-11-12T03:54:51.377Z,7.88
2022-11-12T03:58:12.375Z,9.90
2022-11-12T04:01:20.271Z,12.75
2022-11-12T04:04:45.865Z,10.50
2022-11-12T04:08:04.585Z,10.57
2022-11-12T04:11:12.998Z,8.48
2022-11-12T04:14:18.414Z,11.18
2022-11-12T04:17:38.873Z,8.45
2022-11-12T04:21:04.366Z,8.35
2022-11-12T04:24:31.045Z,10.30
2022-11-12T04:27:36.937Z,9.90
2022-11-12T04:30:39.770Z,11.20
2022-11-12T04:33:48.246Z,12.10
2022-11-12T04:36:55.341Z,9.07
2022-11-12T04:40:22.069Z,8.77
2022-11-12T04:43:39.973Z,8.02
2022-11-12T04:46:51.225Z,9.05
2022-11-12T04:50:01.410Z,9.83
2022-11-12T04:53:06.993Z,8.02
2022-11-12T04:56:14.564Z,10.25
2022-11-12T04:59:19.741Z,10.15
2022-11-12T05:02:25.524Z,9.40
2022-11-12T05:05:34.846Z,9.20
2022-11-12T05:08:41.252Z,9.85
2022-11-12T05:11:48.720Z,9.77
2022-11-12T05:14:54.116Z,13.27
2022-11-12T05:18:00.740Z,9.73
2022-11-12T05:21:23.673Z,8.95
2022-11-12T05:24:41.502Z,10.65
2022-11-12T05:27:55.357Z,10.68
2022-11-12T05:31:00.957Z,10.38
2022-11-12T05:34:06.642Z,8.70
2022-11-12T05:37:18.182Z,8.32
2022-11-12T05:40:24.763Z,8.57
2022-11-12T05:43:31.513Z,9.38
2022-11-12T05:46:40.571Z,11.77
2022-11-12T05:49:46.377Z,11.07
2022-11-12T05:52:55.089Z,8.95
2022-11-12T05:56:04.263Z,9.48
2022-11-12T05:59:10.605Z,9.15
2022-11-12T06:02:18.200Z,8.02
2022-11-12T06:05:23.593Z,12.18
2022-11-12T06:08:31.534Z,12.15
2022-11-12T06:11:37.099Z,8.25
2022-11-12T06:14:42.071Z,10.13
2022-11-12T06:17:49.141Z,9.88
2022-11-12T06:21:06.521Z,10.20
2022-11-12T06:24:15.923Z,9.57
2022-11-12T06:27:21.241Z,11.48
2022-11-12T06:30:27.113Z,9.93
2022-11-12T06:33:32.044Z,10.60
2022-11-12T06:36:42.416Z,13.27
2022-11-12T06:39:50.261Z,8.93
2022-11-12T06:43:00.231Z,10.88
2022-11-12T06:46:05.751Z,8.13
2022-11-12T06:49:11.197Z,11.93
2022-11-12T06:52:16.998Z,12.55
2022-11-12T06:55:25.514Z,13.95
2022-11-12T06:58:31.251Z,10.52
2022-11-12T07:01:40.091Z,10.32
2022-11-12T07:04:46.205Z,10.88
2022-11-12T07:07:52.956Z,10.25
2022-11-12T07:11:01.894Z,10.77
2022-11-12T07:14:10.191Z,10.45
2022-11-12T07:17:18.385Z,13.68
2022-11-12T07:20:26.598Z,11.35
2022-11-12T07:23:33.827Z,12.23
2022-11-12T07:26:47.268Z,10.68
2022-11-12T07:29:56.322Z,10.77
2022-11-12T07:33:04.218Z,8.82
2022-11-12T07:36:12.938Z,12.43
2022-11-12T07:39:18.301Z,11.88
2022-11-12T07:42:26.162Z,11.25
2022-11-12T07:45:31.618Z,12.82
2022-11-12T07:48:36.913Z,10.65
2022-11-12T07:51:44.222Z,20.17
2022-11-12T07:54:51.227Z,9.55
2022-11-12T07:58:01.651Z,12.77
2022-11-12T08:01:30.934Z,12.32
2022-11-12T08:04:38.896Z,13.10
2022-11-12T08:07:43.855Z,13.02
2022-11-12T08:10:49.183Z,10.07
2022-11-12T08:13:56.864Z,13.10
2022-11-12T08:17:05.975Z,9.88
2022-11-12T08:20:11.378Z,14.35
2022-11-12T08:23:16.750Z,15.07
2022-11-12T08:26:22.531Z,11.82
2022-11-12T08:29:31.630Z,12.98
2022-11-12T08:32:36.690Z,11.27
2022-11-12T08:35:44.777Z,14.10
2022-11-12T08:38:49.735Z,13.63
2022-11-12T08:41:55.490Z,14.07
2022-11-12T08:45:03.044Z,14.57
2022-11-12T08:48:09.849Z,14.15
2022-11-12T08:51:16.257Z,10.63
2022-11-12T08:54:21.566Z,12.55
2022-11-12T08:57:29.500Z,13.77
2022-11-12T09:00:41.121Z,13.75
2022-11-12T09:03:46.871Z,14.53
2022-11-12T09:06:53.993Z,14.07
2022-11-12T09:10:01.366Z,11.38
2022-11-12T09:13:13.791Z,14.27
2022-11-12T09:16:24.281Z,15.48
2022-11-12T09:19:30.028Z,11.63
2022-11-12T09:22:35.151Z,11.82
2022-11-12T09:25:41.270Z,15.18
2022-11-12T09:28:47.827Z,12.98
2022-11-12T09:31:57.621Z,12.43
2022-11-12T09:35:03.498Z,13.65
2022-11-12T09:38:11.342Z,12.15
2022-11-12T09:41:22.185Z,10.98
2022-11-12T09:44:28.396Z,14.27
2022-11-12T09:47:42.843Z,11.80
2022-11-12T09:50:52.637Z,12.15
2022-11-12T09:53:58.784Z,10.75
2022-11-12T09:57:08.102Z,12.55
2022-11-12T10:00:17.246Z,10.70
2022-11-12T10:03:31.996Z,11.80
2022-11-12T10:06:38.672Z,12.65
2022-11-12T10:09:48.030Z,13.48
2022-11-12T10:12:59.025Z,9.50
2022-11-12T10:16:52.486Z,11.88
2022-11-12T10:20:07.775Z,10.05
2022-11-12T10:23:18.524Z,10.25
2022-11-12T10:26:25.124Z,10.90
2022-11-12T10:29:34.472Z,13.93
2022-11-12T10:32:47.688Z,9.95
2022-11-12T10:36:11.505Z,10.75
2022-11-12T10:39:34.914Z,9.50
2022-11-12T10:42:59.044Z,9.65
2022-11-12T10:46:20.274Z,9.90
2022-11-12T10:49:26.925Z,12.13
2022-11-12T10:52:34.958Z,12.80
2022-11-12T10:55:58.029Z,11.27
2022-11-12T10:59:15.188Z,8.73
2022-11-12T11:02:21.896Z,11.38
2022-11-12T11:05:35.958Z,11.13
2022-11-12T11:08:46.025Z,10.00
2022-11-12T11:11:53.785Z,13.27
2022-11-12T11:15:08.898Z,10.90
2022-11-12T11:18:14.882Z,13.93
2022-11-12T11:21:28.157Z,13.80
2022-11-12T11:24:40.007Z,11.05
2022-11-12T11:27:51.310Z,10.65
2022-11-12T11:30:59.925Z,12.00
2022-11-12T11:34:17.923Z,12.98
2022-11-12T11:37:28.220Z,11.30
2022-11-12T11:40:41.469Z,11.25
2022-11-12T11:47:00.095Z,15.43
2022-11-12T11:50:22.795Z,9.80
2022-11-12T11:53:32.888Z,9.18
2022-11-12T11:56:45.026Z,10.25
2022-11-12T12:00:04.281Z,9.77
2022-11-12T12:03:18.345Z,11.65
2022-11-12T12:06:27.836Z,12.38
2022-11-12T12:09:43.288Z,10.07
2022-11-12T12:12:58.716Z,10.48
2022-11-12T12:16:14.053Z,11.15
2022-11-12T12:19:25.665Z,7.18
2022-11-12T12:22:38.022Z,9.02
2022-11-12T12:25:57.370Z,11.25
2022-11-12T12:29:09.974Z,11.25
2022-11-12T12:32:24.144Z,8.90
2022-11-12T12:35:34.007Z,10.40
2022-11-12T12:38:47.811Z,9.60
2022-11-12T12:41:56.833Z,9.05
2022-11-12T12:45:20.007Z,13.98
2022-11-12T12:48:28.715Z,13.85
2022-11-12T12:51:37.344Z,13.05
2022-11-12T12:54:58.810Z,13.95
2022-11-12T12:58:05.653Z,13.98
2022-11-12T13:01:17.122Z,10.07
2022-11-12T13:04:43.491Z,14.20
2022-11-12T13:07:50.157Z,11.73
2022-11-12T13:10:56.555Z,12.73
2022-11-12T13:14:21.828Z,14.40
2022-11-12T13:17:49.880Z,15.75
2022-11-12T13:21:12.669Z,14.95
2022-11-12T13:24:41.672Z,13.82
2022-11-12T13:28:12.524Z,14.05
2022-11-12T13:31:34.536Z,13.25
2022-11-12T13:34:41.357Z,11.63
2022-11-12T13:37:51.519Z,16.95
2022-11-12T13:41:07.293Z,14.40
2022-11-12T13:44:21.216Z,14.00
2022-11-12T13:47:33.636Z,15.55
2022-11-12T13:50:40.668Z,17.58
2022-11-12T13:53:46.548Z,11.52
2022-11-12T13:56:58.858Z,13.57
2022-11-12T14:00:26.897Z,12.60
2022-11-12T14:03:35.783Z,14.77
2022-11-12T14:06:43.673Z,13.02
2022-11-12T14:09:57.816Z,15.07
2022-11-12T14:13:19.934Z,13.63
2022-11-12T14:16:41.404Z,15.48
2022-11-12T14:20:08.642Z,10.20
2022-11-12T14:23:20.083Z,15.57
2022-11-12T14:26:39.001Z,11.23
2022-11-12T14:29:44.838Z,14.98
2022-11-12T14:32:51.167Z,14.32
2022-11-12T14:36:03.143Z,13.85
2022-11-12T14:39:09.426Z,12.88
2022-11-12T14:42:17.421Z,14.70
2022-11-12T14:45:23.310Z,16.55
2022-11-12T14:48:28.980Z,16.15
2022-11-12T14:51:47.358Z,14.50
2022-11-12T14:55:02.348Z,13.85
2022-11-12T14:58:08.894Z,16.88
2022-11-12T15:04:54.866Z,12.00
2022-11-12T15:08:05.171Z,16.50
2022-11-12T15:11:21.677Z,16.73
2022-11-12T15:14:33.695Z,15.18
2022-11-12T15:17:40.152Z,13.10
2022-11-12T15:21:04.070Z,15.38
2022-11-12T15:24:19.696Z,14.60
2022-11-12T15:27:37.344Z,11.98
2022-11-12T15:30:43.005Z,14.05
2022-11-12T15:33:51.360Z,13.18
2022-11-12T15:37:02.713Z,13.48
2022-11-12T15:40:16.059Z,20.17
2022-11-12T15:43:22.582Z,13.85
2022-11-12T15:46:29.422Z,14.98
2022-11-12T15:49:35.397Z,13.95
2022-11-12T15:52:43.004Z,17.05
2022-11-12T15:55:53.029Z,15.85
2022-11-12T15:59:01.368Z,13.40
2022-11-12T16:02:08.600Z,12.40
2022-11-12T16:05:18.156Z,20.80
2022-11-12T16:08:25.757Z,14.52
2022-11-12T16:11:40.323Z,14.52
2022-11-12T16:14:48.404Z,10.93
2022-11-12T16:17:58.404Z,14.45
2022-11-12T16:21:03.400Z,16.73
2022-11-12T16:24:12.436Z,13.77
2022-11-12T16:27:21.887Z,15.98
2022-11-12T16:30:29.454Z,12.75
2022-11-12T16:33:34.658Z,15.35
2022-11-12T16:36:44.822Z,14.23
2022-11-12T16:39:52.673Z,15.68
2022-11-12T16:43:05.414Z,16.63
2022-11-12T16:46:16.244Z,12.63
2022-11-12T16:49:27.130Z,15.98
2022-11-12T16:52:32.414Z,16.10
2022-11-12T16:55:38.203Z,18.80
2022-11-12T16:58:46.896Z,12.63
2022-11-12T17:01:53.259Z,15.00
2022-11-12T17:05:01.745Z,14.10
2022-11-12T17:08:07.257Z,15.52
2022-11-12T17:11:24.441Z,14.13
2022-11-12T17:14:35.819Z,15.52
2022-11-12T17:17:43.050Z,16.58
2022-11-12T17:20:59.705Z,19.10
2022-11-12T17:24:05.567Z,16.23
2022-11-12T17:27:11.493Z,18.33
2022-11-12T17:30:22.298Z,12.80
2022-11-12T17:33:30.036Z,14.82
2022-11-12T17:36:39.308Z,21.38
2022-11-12T17:39:51.796Z,16.85
2022-11-12T17:42:57.203Z,13.02
2022-11-12T17:46:08.800Z,18.42
2022-11-12T17:49:14.470Z,14.38
2022-11-12T17:52:21.354Z,14.52
2022-11-12T17:55:29.166Z,15.20
2022-11-12T17:58:37.300Z,17.38
2022-11-12T18:01:47.659Z,14.98
2022-11-12T18:04:55.386Z,19.25
2022-11-12T18:08:00.614Z,15.57
2022-11-12T18:11:08.603Z,17.70
2022-11-12T18:14:22.874Z,19.70
2022-11-12T18:17:31.187Z,18.38
2022-11-12T18:20:38.312Z,19.02
2022-11-12T18:23:44.513Z,18.35
2022-11-12T18:26:51.981Z,15.63
2022-11-12T18:29:59.995Z,22.00
2022-11-12T18:33:10.996Z,18.02
2022-11-12T18:36:18.234Z,15.65
2022-11-12T18:39:26.596Z,19.30
2022-11-12T18:42:36.848Z,18.25
2022-11-12T18:45:41.913Z,17.70
2022-11-12T18:48:50.459Z,19.85
2022-11-12T18:51:55.929Z,18.10
2022-11-12T18:55:04.070Z,23.55
2022-11-12T18:58:09.490Z,19.85
2022-11-12T19:01:16.133Z,24.38
2022-11-12T19:04:24.562Z,16.00
2022-11-12T19:07:30.522Z,16.33
2022-11-12T19:10:35.814Z,15.68
2022-11-12T19:13:42.804Z,21.15
2022-11-12T19:16:51.071Z,17.70
2022-11-12T19:20:03.765Z,18.83
2022-11-12T19:23:09.426Z,19.33
2022-11-12T19:26:15.902Z,18.30
2022-11-12T19:29:21.162Z,24.63
2022-11-12T19:32:27.574Z,21.73
2022-11-12T19:35:35.694Z,21.25
2022-11-12T19:38:41.501Z,25.17
2022-11-12T19:41:49.224Z,23.60
2022-11-12T19:44:55.490Z,23.00
2022-11-12T19:48:03.174Z,21.23
2022-11-12T19:51:13.173Z,19.45
2022-11-12T19:54:22.002Z,24.25
2022-11-12T19:57:30.825Z,22.58
2022-11-12T20:00:38.247Z,19.08
2022-11-12T20:03:45.560Z,23.17
2022-11-12T20:06:58.721Z,28.95
2022-11-12T20:10:05.820Z,24.73
2022-11-12T20:13:11.844Z,19.25
2022-11-12T20:16:24.878Z,22.65
2022-11-12T20:19:30.468Z,21.98
2022-11-12T20:22:39.122Z,23.00
2022-11-12T20:25:48.109Z,20.35
2022-11-12T20:28:54.585Z,19.00
2022-11-12T20:32:02.123Z,20.92
2022-11-12T20:35:19.345Z,24.08
2022-11-12T20:38:30.985Z,26.92
2022-11-12T20:41:41.205Z,27.30
2022-11-12T20:44:51.490Z,26.83
2022-11-12T20:48:00.270Z,28.25
2022-11-12T20:51:22.560Z,38.17
2022-11-12T20:54:33.782Z,30.42
2022-11-12T20:57:41.194Z,33.97
2022-11-12T21:00:48.622Z,22.75
2022-11-12T21:03:59.331Z,22.65
2022-11-12T21:07:05.721Z,29.80
2022-11-12T21:10:19.818Z,24.83
2022-11-12T21:13:26.505Z,30.67
2022-11-12T21:16:32.414Z,35.15
2022-11-12T21:19:37.649Z,36.72
2022-11-12T21:22:42.600Z,32.85
2022-11-12T21:25:54.430Z,34.33
2022-11-12T21:28:59.675Z,20.98
2022-11-12T21:32:08.204Z,29.45
2022-11-12T21:35:16.543Z,28.88
2022-11-12T21:38:24.312Z,27.98
2022-11-12T21:41:33.202Z,31.33
2022-11-12T21:44:38.778Z,34.88
2022-11-12T21:47:43.673Z,38.95
2022-11-12T21:50:58.934Z,31.70
2022-11-12T21:54:06.502Z,30.33
2022-11-12T21:57:18.847Z,37.20
2022-11-12T22:00:41.437Z,31.95
2022-11-12T22:03:50.999Z,29.35
2022-11-12T22:06:56.989Z,33.83
2022-11-12T22:10:13.122Z,35.65
2022-11-12T22:13:27.500Z,30.42
2022-11-12T22:16:33.796Z,28.63
2022-11-12T22:19:39.249Z,41.70
2022-11-12T22:22:46.887Z,33.47
2022-11-12T22:25:52.399Z,32.85
2022-11-12T22:29:01.945Z,34.22
2022-11-12T22:32:07.237Z,33.15
2022-11-12T22:35:14.398Z,39.47
2022-11-12T22:38:19.600Z,29.08
2022-11-12T22:41:25.758Z,32.35
2022-11-12T22:44:33.763Z,37.55
2022-11-12T22:47:39.300Z,34.08
2022-11-12T22:50:46.098Z,31.85
2022-11-12T22:53:55.478Z,34.28
2022-11-12T22:57:03.188Z,32.88
2022-11-12T23:00:14.666Z,35.83
2022-11-12T23:03:20.406Z,36.45
2022-11-12T23:06:26.243Z,51.58
2022-11-12T23:09:31.341Z,35.35
2022-11-12T23:12:36.691Z,33.65
2022-11-12T23:15:45.160Z,42.63
2022-11-12T23:19:00.876Z,30.65
2022-11-12T23:22:08.035Z,29.73
2022-11-12T23:25:16.321Z,28.05
2022-11-12T23:28:24.774Z,39.30
2022-11-12T23:31:36.596Z,39.17
2022-11-12T23:34:41.577Z,38.58
2022-11-12T23:37:47.244Z,27.13
2022-11-12T23:40:55.805Z,34.70
2022-11-12T23:44:01.633Z,23.67
2022-11-12T23:47:09.422Z,37.13
2022-11-12T23:50:15.117Z,31.67
2022-11-12T23:53:23.244Z,37.15
2022-11-12T23:56:30.149Z,36.58
2022-11-12T23:59:36.016Z,34.15
